Time;durP1;ratioP1;P1;durP2;ratioP2;P2;SDS_P1;SDS_P2;PMS_P1;PMS_P2;Temp;Humidity;BMP_temperature;BMP_pressure;BME280_temperature;BME280_humidity;BME280_pressure;Samples;Min_cycle;Max_cycle;Signal;HPM_P1;HPM_P2
2023/05/22 00:01:18;;;;;;;24.77;7.93;;;;;;;18.02;87.34;100237.38;5108577;28;20353;-69
2023/05/22 00:03:44;;;;;;;13.43;7.43;;;;;;;18.02;87.63;100240.09;5108882;28;20020;-68
2023/05/22 00:06:10;;;;;;;10.48;7.50;;;;;;;17.94;87.78;100244.75;5110083;28;20468;-68
2023/05/22 00:08:37;;;;;;;9.00;6.75;;;;;;;17.90;87.92;100227.97;5110020;28;20038;-69
2023/05/22 00:11:02;;;;;;;9.55;7.00;;;;;;;17.91;88.32;100239.69;5109990;28;20031;-68
2023/05/22 00:13:28;;;;;;;7.47;6.78;;;;;;;17.86;88.61;100248.38;5108532;28;20552;-69
2023/05/22 00:15:53;;;;;;;9.90;6.97;;;;;;;17.84;88.51;100250.41;5109974;28;20027;-69
2023/05/22 00:18:19;;;;;;;12.20;7.20;;;;;;;17.75;89.21;100243.41;5109814;28;20035;-69
2023/05/22 00:20:45;;;;;;;10.77;7.53;;;;;;;17.75;89.12;100240.69;5109286;28;20035;-69
2023/05/22 00:23:12;;;;;;;9.57;6.97;;;;;;;17.72;89.00;100243.75;5110019;28;20107;-69
2023/05/22 00:25:38;;;;;;;10.45;7.70;;;;;;;17.63;89.56;100233.16;5109872;28;20038;-69
2023/05/22 00:28:04;;;;;;;8.80;6.95;;;;;;;17.65;89.79;100244.66;5113597;28;20035;-69
2023/05/22 00:30:30;;;;;;;10.13;7.22;;;;;;;17.59;89.85;100231.81;5110317;28;20034;-69
2023/05/22 00:32:56;;;;;;;8.75;6.53;;;;;;;17.59;90.14;100240.81;5113336;28;20482;-69
2023/05/22 00:35:21;;;;;;;11.75;6.70;;;;;;;17.55;90.20;100233.22;5113356;28;20055;-69
2023/05/22 00:37:47;;;;;;;10.13;6.68;;;;;;;17.52;90.44;100231.72;5113246;28;20459;-68
2023/05/22 00:40:14;;;;;;;8.60;7.28;;;;;;;17.48;90.39;100222.25;5113030;28;20042;-68
2023/05/22 00:42:42;;;;;;;7.72;6.70;;;;;;;17.46;90.60;100215.31;5113295;28;20020;-69
2023/05/22 00:45:10;;;;;;;8.23;6.80;;;;;;;17.43;90.73;100221.09;5112810;28;20039;-69
2023/05/22 00:47:35;;;;;;;8.68;7.25;;;;;;;17.44;90.35;100230.91;5112757;28;20070;-69
2023/05/22 00:50:02;;;;;;;8.25;7.22;;;;;;;17.35;90.55;100223.84;5112901;28;20059;-69
2023/05/22 00:52:28;;;;;;;8.27;6.75;;;;;;;17.37;91.20;100232.63;5112864;27;20024;-68
2023/05/22 00:54:54;;;;;;;10.00;6.93;;;;;;;17.28;91.31;100228.31;5111750;28;20528;-69
2023/05/22 00:57:21;;;;;;;9.43;7.22;;;;;;;17.29;91.49;100230.81;5112784;27;20019;-69
2023/05/22 00:59:47;;;;;;;8.13;6.93;;;;;;;17.24;91.78;100221.53;5112428;28;20381;-68
2023/05/22 01:02:15;;;;;;;8.40;7.60;;;;;;;17.26;91.74;100235.78;5113058;28;20033;-69
2023/05/22 01:04:49;;;;;;;9.43;7.75;;;;;;;17.25;91.65;100239.50;5112665;28;20368;-69
2023/05/22 01:07:18;;;;;;;;;;;;;;;17.24;91.86;100240.50;5113221;28;20050;-69
2023/05/22 01:09:43;;;;;;;8.60;7.35;;;;;;;17.18;92.14;100238.50;5112525;28;20267;-69
2023/05/22 01:12:27;;;;;;;11.20;8.38;;;;;;;17.17;92.49;100248.53;5112109;28;20051;-69
2023/05/22 01:15:06;;;;;;;9.07;7.63;;;;;;;17.12;92.79;100250.09;5112259;28;20118;-69
2023/05/22 01:18:03;;;;;;;11.40;8.55;;;;;;;17.08;92.98;100246.03;5110420;28;20538;-69
2023/05/22 01:20:56;;;;;;;9.90;7.80;;;;;;;17.06;93.29;100239.97;5110931;28;20042;-69
2023/05/22 01:23:34;;;;;;;11.38;8.18;;;;;;;17.06;93.69;100242.66;5110775;28;20034;-69
2023/05/22 01:26:20;;;;;;;9.18;8.05;;;;;;;17.05;94.36;100246.38;5112542;28;20077;-69
2023/05/22 01:29:03;;;;;;;11.20;8.00;;;;;;;17.06;94.06;100248.91;5110570;28;20102;-69
2023/05/22 01:31:31;;;;;;;10.05;7.82;;;;;;;17.03;94.20;100245.72;5111915;28;20666;-69
2023/05/22 01:33:59;;;;;;;9.77;7.65;;;;;;;17.00;94.25;100241.53;5112022;27;20111;-69
2023/05/22 01:36:29;;;;;;;11.50;7.95;;;;;;;17.04;94.42;100245.56;5111979;28;20042;-69
2023/05/22 01:38:57;;;;;;;10.10;7.65;;;;;;;17.03;93.70;100227.59;5110556;28;20023;-69
2023/05/22 01:41:23;;;;;;;11.43;7.88;;;;;;;17.01;93.82;100235.06;5111571;28;20042;-69
2023/05/22 01:43:49;;;;;;;11.32;7.35;;;;;;;17.03;93.59;100249.25;5110374;28;20028;-69
2023/05/22 01:46:14;;;;;;;9.05;7.30;;;;;;;17.02;93.18;100242.16;5110365;28;20352;-69
2023/05/22 01:48:40;;;;;;;10.43;6.95;;;;;;;17.05;93.32;100249.09;5111405;28;20040;-69
2023/05/22 01:51:19;;;;;;;9.85;7.32;;;;;;;17.10;92.29;100257.53;5111504;28;20028;-69
2023/05/22 01:54:00;;;;;;;10.93;6.93;;;;;;;17.11;91.38;100260.06;5109903;28;20376;-69
2023/05/22 01:56:35;;;;;;;9.85;6.93;;;;;;;17.08;89.98;100246.03;5109927;28;20048;-69
2023/05/22 01:59:24;;;;;;;8.80;6.50;;;;;;;17.16;90.07;100259.56;5110360;28;20501;-69
2023/05/22 02:01:51;;;;;;;6.90;6.07;;;;;;;17.15;89.79;100257.88;5111349;28;20011;-69
2023/05/22 02:04:20;;;;;;;8.07;5.95;;;;;;;17.10;89.92;100242.13;5110996;28;20019;-69
2023/05/22 02:06:46;;;;;;;9.88;7.05;;;;;;;17.20;89.17;100255.44;5111287;28;20034;-69
2023/05/22 02:09:15;;;;;;;9.60;7.38;;;;;;;17.18;89.35;100244.78;5110956;28;20464;-69
2023/05/22 02:11:41;;;;;;;9.65;6.30;;;;;;;17.15;89.16;100249.75;5110427;28;20032;-69
2023/05/22 02:14:10;;;;;;;8.55;6.85;;;;;;;17.15;89.60;100258.69;5109353;28;20040;-69
2023/05/22 02:16:36;;;;;;;7.40;6.60;;;;;;;17.12;89.75;100252.81;5107994;28;20151;-69
2023/05/22 02:19:05;;;;;;;9.05;6.80;;;;;;;17.09;89.37;100239.59;5110643;28;20019;-69
2023/05/22 02:21:34;;;;;;;9.25;7.25;;;;;;;17.15;89.28;100255.97;5110838;28;20038;-69
2023/05/22 02:24:00;;;;;;;14.07;7.03;;;;;;;17.15;89.28;100242.44;5110548;28;20030;-69
2023/05/22 02:26:25;;;;;;;11.13;5.85;;;;;;;17.12;89.30;100252.81;5109146;28;20062;-68
2023/05/22 02:28:51;;;;;;;9.27;6.35;;;;;;;17.09;89.20;100248.56;5108521;28;20102;-69
2023/05/22 02:31:17;;;;;;;8.73;5.97;;;;;;;16.99;89.20;100242.53;5109398;28;20110;-69
2023/05/22 02:33:43;;;;;;;10.15;7.63;;;;;;;16.99;89.32;100237.09;5108320;28;20020;-69
2023/05/22 02:36:09;;;;;;;8.55;6.70;;;;;;;16.94;89.74;100241.38;5109325;28;20072;-69
2023/05/22 02:38:35;;;;;;;11.32;6.20;;;;;;;16.89;89.67;100239.19;5109348;28;20042;-69
2023/05/22 02:41:01;;;;;;;7.55;6.85;;;;;;;16.90;89.95;100240.88;5109132;28;20035;-69
2023/05/22 02:43:27;;;;;;;12.18;6.93;;;;;;;16.87;90.45;100237.69;5109331;28;20110;-69
2023/05/22 02:45:52;;;;;;;8.77;6.70;;;;;;;16.83;90.48;100244.47;5109294;28;20019;-69
2023/05/22 02:48:18;;;;;;;13.95;7.20;;;;;;;16.81;91.25;100250.09;5108574;28;20023;-69
2023/05/22 02:50:43;;;;;;;10.27;6.80;;;;;;;16.77;91.71;100250.59;5107789;28;20031;-69
2023/05/22 02:53:09;;;;;;;9.77;7.05;;;;;;;16.66;91.79;100243.69;5107494;28;20039;-69
2023/05/22 02:55:35;;;;;;;9.90;6.95;;;;;;;16.69;91.94;100256.03;5107228;28;20419;-69
2023/05/22 02:58:01;;;;;;;6.93;6.03;;;;;;;16.62;92.28;100247.78;5108831;28;20030;-69
2023/05/22 03:00:27;;;;;;;12.10;7.13;;;;;;;16.61;92.54;100266.91;5108556;28;20475;-69
2023/05/22 03:02:52;;;;;;;12.02;7.35;;;;;;;16.56;93.52;100275.56;5108734;28;20015;-69
2023/05/22 03:05:17;;;;;;;10.98;7.30;;;;;;;16.53;93.35;100278.59;5107725;28;20202;-69
2023/05/22 03:07:44;;;;;;;9.40;6.53;;;;;;;16.49;93.43;100274.56;5106319;28;20039;-69
2023/05/22 03:10:09;;;;;;;12.85;7.10;;;;;;;16.44;93.29;100274.22;5107285;28;20016;-69
2023/05/22 03:12:35;;;;;;;8.00;6.72;;;;;;;16.40;93.18;100272.00;5108141;28;20416;-69
2023/05/22 03:15:00;;;;;;;9.68;7.13;;;;;;;16.32;93.36;100282.84;5108114;28;20040;-68
2023/05/22 03:17:26;;;;;;;11.82;6.65;;;;;;;16.27;93.52;100274.41;5107858;28;20141;-69
2023/05/22 03:19:51;;;;;;;11.77;7.07;;;;;;;16.19;93.80;100260.91;5107853;28;20484;-69
2023/05/22 03:22:20;;;;;;;10.18;7.68;;;;;;;16.20;94.19;100270.69;5108223;28;20102;-69
2023/05/22 03:24:45;;;;;;;9.93;6.70;;;;;;;16.15;95.10;100270.38;5107824;28;20027;-69
2023/05/22 03:27:15;;;;;;;17.92;8.60;;;;;;;16.13;95.53;100267.00;5107877;28;20058;-69
2023/05/22 03:29:41;;;;;;;11.95;7.68;;;;;;;16.08;95.54;100264.78;5108584;28;20107;-69
2023/05/22 03:32:06;;;;;;;9.88;7.10;;;;;;;16.11;96.33;100279.84;5106363;28;20115;-69
2023/05/22 03:34:32;;;;;;;11.38;7.55;;;;;;;16.04;96.37;100258.03;5108055;28;20046;-69
2023/05/22 03:36:57;;;;;;;14.73;7.97;;;;;;;16.03;96.89;100269.03;5107699;28;20031;-69
2023/05/22 03:39:23;;;;;;;13.05;7.53;;;;;;;16.07;97.27;100281.19;5107953;28;20045;-69
2023/05/22 03:41:48;;;;;;;11.52;7.93;;;;;;;15.95;97.86;100267.16;5105600;28;20023;-65
2023/05/22 03:44:13;;;;;;;12.82;7.28;;;;;;;16.05;97.89;100280.53;5107236;28;20027;-65
2023/05/22 03:46:39;;;;;;;10.32;7.53;;;;;;;16.06;98.24;100269.53;5107879;28;20024;-65
2023/05/22 03:49:04;;;;;;;11.27;7.55;;;;;;;15.99;98.42;100260.41;5107684;28;20058;-65
2023/05/22 03:51:30;;;;;;;12.77;7.25;;;;;;;16.10;98.67;100270.88;5107895;28;20023;-66
2023/05/22 03:53:56;;;;;;;10.98;8.10;;;;;;;16.17;97.69;100268.31;5107398;28;20016;-65
2023/05/22 03:56:21;;;;;;;12.60;8.38;;;;;;;16.15;98.07;100264.97;5107446;28;20031;-66
2023/05/22 03:58:48;;;;;;;13.52;8.35;;;;;;;16.13;98.21;100256.16;5107993;28;20046;-66
2023/05/22 04:01:15;;;;;;;10.88;7.85;;;;;;;16.25;98.32;100271.03;5108468;28;20502;-66
2023/05/22 04:03:41;;;;;;;16.48;7.97;;;;;;;16.26;98.39;100259.19;5111126;28;20023;-65
2023/05/22 04:06:06;;;;;;;10.25;8.38;;;;;;;16.35;98.43;100260.88;5110849;28;20019;-65
2023/05/22 04:08:32;;;;;;;16.08;9.02;;;;;;;16.43;98.58;100269.84;5109939;28;20030;-66
2023/05/22 04:10:57;;;;;;;17.52;9.05;;;;;;;16.51;98.18;100269.81;5111528;28;20031;-65
2023/05/22 04:13:23;;;;;;;17.75;9.15;;;;;;;16.61;98.14;100270.44;5110590;28;20051;-65
2023/05/22 04:15:49;;;;;;;12.88;8.18;;;;;;;16.67;98.45;100272.47;5111424;28;20023;-65
2023/05/22 04:18:14;;;;;;;10.98;8.18;;;;;;;16.76;98.20;100273.28;5111202;28;20060;-66
2023/05/22 04:20:41;;;;;;;12.23;9.57;;;;;;;16.76;98.13;100262.44;5111333;28;20272;-66
2023/05/22 04:23:07;;;;;;;10.55;8.82;;;;;;;16.87;97.52;100262.06;5111265;28;20488;-66
2023/05/22 04:25:33;;;;;;;13.70;9.52;;;;;;;16.94;97.75;100263.91;5111637;28;20106;-66
2023/05/22 04:28:01;;;;;;;15.40;9.38;;;;;;;17.05;96.90;100265.34;5111516;28;20114;-66
2023/05/22 04:30:27;;;;;;;15.77;10.38;;;;;;;17.17;96.35;100270.22;5110980;28;20031;-65
2023/05/22 04:32:52;;;;;;;11.40;9.73;;;;;;;17.28;96.54;100280.66;5111281;28;20028;-65
2023/05/22 04:35:18;;;;;;;13.75;10.07;;;;;;;17.40;96.50;100276.50;5111427;28;20472;-68
2023/05/22 04:37:46;;;;;;;15.57;10.32;;;;;;;17.53;95.53;100273.22;5109973;27;20463;-66
2023/05/22 04:40:14;;;;;;;14.45;9.93;;;;;;;17.68;94.74;100276.84;5108930;28;20167;-66
2023/05/22 04:42:41;;;;;;;13.40;9.30;;;;;;;17.82;93.73;100278.78;5110028;28;20122;-66
2023/05/22 04:45:07;;;;;;;10.50;8.70;;;;;;;18.07;90.74;100280.25;5109120;28;20055;-66
2023/05/22 04:47:33;;;;;;;14.48;8.32;;;;;;;18.18;90.49;100284.41;5110908;27;20505;-66
2023/05/22 04:49:59;;;;;;;13.77;8.88;;;;;;;18.18;91.10;100279.81;5111037;28;20032;-66
2023/05/22 04:52:25;;;;;;;14.38;9.50;;;;;;;18.35;90.62;100278.63;5110948;28;20032;-66
2023/05/22 04:54:51;;;;;;;10.60;8.23;;;;;;;18.50;88.07;100279.50;5102768;28;20361;-67
2023/05/22 04:57:18;;;;;;;10.52;8.32;;;;;;;18.51;87.54;100262.19;5110272;28;20023;-66
2023/05/22 04:59:44;;;;;;;11.23;7.63;;;;;;;18.64;87.81;100267.78;5110193;28;20479;-66
2023/05/22 05:02:10;;;;;;;10.73;8.48;;;;;;;18.81;87.25;100274.75;5110581;27;20019;-67
2023/05/22 05:04:36;;;;;;;10.38;7.80;;;;;;;18.80;85.71;100256.75;5108637;28;20026;-66
2023/05/22 05:07:02;;;;;;;12.23;7.60;;;;;;;19.01;84.59;100264.97;5109998;28;20386;-66
2023/05/22 05:09:27;;;;;;;9.02;6.50;;;;;;;19.23;82.01;100284.91;5109032;28;20023;-66
2023/05/22 05:11:54;;;;;;;10.98;6.88;;;;;;;19.34;80.25;100282.56;5109550;28;20056;-66
2023/05/22 05:14:19;;;;;;;11.80;5.72;;;;;;;19.48;73.49;100278.94;5110022;28;20512;-66
2023/05/22 05:16:45;;;;;;;14.18;5.95;;;;;;;19.50;72.85;100265.16;5109882;28;20036;-66
2023/05/22 05:19:11;;;;;;;9.13;6.18;;;;;;;19.68;71.04;100282.75;5108163;28;20417;-66
2023/05/22 05:21:37;;;;;;;6.68;4.55;;;;;;;19.78;68.12;100283.25;5107346;28;20024;-67
2023/05/22 05:24:05;;;;;;;7.28;5.00;;;;;;;19.84;65.66;100285.22;5108852;28;20134;-66
2023/05/22 05:26:30;;;;;;;7.60;4.97;;;;;;;19.98;64.12;100281.56;5108671;28;20055;-66
2023/05/22 05:28:56;;;;;;;11.35;5.00;;;;;;;20.02;65.10;100288.28;5106788;28;20024;-66
2023/05/22 05:31:22;;;;;;;8.32;4.68;;;;;;;20.16;64.22;100272.94;5108216;28;20027;-67
2023/05/22 05:33:48;;;;;;;7.95;4.70;;;;;;;20.23;64.56;100276.56;5109506;27;20024;-67
2023/05/22 05:36:15;;;;;;;8.05;4.30;;;;;;;20.37;63.35;100269.34;5109974;28;20490;-66
2023/05/22 05:38:40;;;;;;;6.97;4.55;;;;;;;20.57;61.46;100275.75;5109854;28;20028;-66
2023/05/22 05:41:06;;;;;;;9.57;4.38;;;;;;;20.80;58.34;100274.41;5111417;28;20031;-66
2023/05/22 05:43:31;;;;;;;9.85;4.13;;;;;;;20.87;59.08;100267.13;5112878;28;20337;-66
2023/05/22 05:45:57;;;;;;;11.43;4.50;;;;;;;21.01;56.61;100262.59;5113380;28;20020;-67
2023/05/22 05:48:22;;;;;;;6.45;4.28;;;;;;;21.08;56.99;100258.84;5111889;28;20062;-67
2023/05/22 05:50:48;;;;;;;8.57;4.38;;;;;;;21.27;56.36;100270.88;5111357;28;20030;-66
2023/05/22 05:53:13;;;;;;;11.52;4.10;;;;;;;21.28;56.20;100267.97;5110859;28;20028;-67
2023/05/22 05:55:39;;;;;;;11.05;3.65;;;;;;;21.38;56.41;100265.69;5109950;28;20035;-65
2023/05/22 05:58:04;;;;;;;6.80;3.88;;;;;;;21.51;55.99;100268.44;5107631;28;20303;-65
2023/05/22 06:00:30;;;;;;;7.93;4.00;;;;;;;21.62;54.71;100269.75;5109666;28;20023;-66
2023/05/22 06:02:55;;;;;;;11.13;4.50;;;;;;;21.77;55.01;100279.44;5109685;28;20031;-65
2023/05/22 06:05:21;;;;;;;7.30;4.35;;;;;;;21.86;54.91;100274.66;5109588;28;20494;-66
2023/05/22 06:07:47;;;;;;;6.60;4.28;;;;;;;21.93;53.42;100265.41;5109603;28;20046;-65
2023/05/22 06:10:13;;;;;;;11.82;4.10;;;;;;;21.94;53.64;100264.38;5109533;28;20031;-66
2023/05/22 06:12:39;;;;;;;6.85;3.85;;;;;;;21.98;53.54;100271.09;5108845;28;20051;-66
2023/05/22 06:15:06;;;;;;;6.50;4.05;;;;;;;22.01;53.81;100259.75;5109619;28;20154;-66
2023/05/22 06:17:32;;;;;;;6.05;3.80;;;;;;;22.12;53.58;100266.47;5110102;28;20371;-65
2023/05/22 06:19:58;;;;;;;9.30;4.30;;;;;;;22.18;53.29;100257.41;5109586;28;20027;-66
2023/05/22 06:22:27;;;;;;;7.53;4.07;;;;;;;22.30;52.71;100253.00;5109716;28;20398;-65
2023/05/22 06:24:53;;;;;;;8.07;3.90;;;;;;;22.41;52.83;100263.31;5107823;28;20034;-65
2023/05/22 06:27:21;;;;;;;5.55;3.65;;;;;;;22.49;52.28;100254.91;5105890;28;20031;-66
2023/05/22 06:29:47;;;;;;;8.25;4.00;;;;;;;22.63;52.02;100259.28;5111551;28;20019;-66
2023/05/22 06:32:13;;;;;;;7.45;3.90;;;;;;;22.68;52.02;100245.81;5111427;28;20349;-67
2023/05/22 06:34:39;;;;;;;8.88;4.18;;;;;;;22.83;51.24;100256.53;5111273;28;20088;-66
2023/05/22 06:37:05;;;;;;;10.23;4.25;;;;;;;22.79;51.04;100250.63;5111245;28;20118;-66
2023/05/22 06:39:30;;;;;;;6.43;4.20;;;;;;;22.90;51.61;100260.91;5111651;28;20016;-66
2023/05/22 06:41:56;;;;;;;8.13;3.97;;;;;;;22.99;51.15;100247.84;5111831;28;20034;-65
2023/05/22 06:44:21;;;;;;;13.60;4.85;;;;;;;23.06;50.04;100251.38;5111286;28;20341;-67
2023/05/22 06:46:47;;;;;;;8.10;4.20;;;;;;;23.15;49.85;100256.38;5110551;28;20792;-66
2023/05/22 06:49:12;;;;;;;12.00;4.68;;;;;;;23.14;50.33;100262.91;5110509;28;20597;-67
2023/05/22 06:51:38;;;;;;;11.30;3.95;;;;;;;23.16;50.40;100251.75;5110339;28;20506;-66
2023/05/22 06:54:05;;;;;;;7.45;4.70;;;;;;;23.26;50.42;100258.47;5110608;28;20020;-67
2023/05/22 06:56:31;;;;;;;8.82;4.47;;;;;;;23.36;50.27;100252.53;5110588;28;20037;-67
2023/05/22 06:58:57;;;;;;;8.82;4.43;;;;;;;23.41;49.73;100256.28;5110214;28;20470;-68
2023/05/22 07:01:23;;;;;;;10.43;4.78;;;;;;;23.50;50.08;100259.59;5110206;28;20563;-67
2023/05/22 07:03:48;;;;;;;10.00;4.38;;;;;;;23.51;49.59;100245.69;5110208;28;20027;-67
2023/05/22 07:06:14;;;;;;;9.93;4.40;;;;;;;23.60;49.21;100258.06;5110733;28;20033;-66
2023/05/22 07:08:39;;;;;;;16.33;4.45;;;;;;;23.65;48.54;100257.41;5110617;28;20065;-66
2023/05/22 07:11:06;;;;;;;12.55;3.97;;;;;;;23.65;48.95;100244.56;5110087;28;20031;-67
2023/05/22 07:13:31;;;;;;;16.50;4.30;;;;;;;23.76;48.47;100249.31;5110304;28;20032;-67
2023/05/22 07:15:57;;;;;;;9.32;4.57;;;;;;;23.96;47.04;100255.53;5110422;28;20039;-67
2023/05/22 07:18:22;;;;;;;7.10;4.18;;;;;;;24.01;47.47;100249.38;5110795;28;20403;-67
2023/05/22 07:20:48;;;;;;;9.15;4.05;;;;;;;24.12;48.15;100257.72;5110319;28;20106;-67
2023/05/22 07:23:13;;;;;;;9.15;4.68;;;;;;;24.19;48.39;100247.53;5110695;28;20035;-67
2023/05/22 07:25:39;;;;;;;14.20;4.95;;;;;;;24.29;48.19;100258.84;5110095;28;20063;-67
2023/05/22 07:28:07;;;;;;;9.10;4.53;;;;;;;24.32;47.85;100249.34;5110126;28;20047;-67
2023/05/22 07:30:35;;;;;;;8.32;4.43;;;;;;;24.35;47.55;100248.88;5110512;28;20027;-67
2023/05/22 07:33:01;;;;;;;7.95;4.93;;;;;;;24.31;46.56;100248.50;5110562;28;20067;-67
2023/05/22 07:35:27;;;;;;;8.82;4.75;;;;;;;24.36;46.80;100245.06;5110453;28;20525;-67
2023/05/22 07:37:52;;;;;;;7.13;4.32;;;;;;;24.41;46.55;100248.00;5114087;27;20034;-67
2023/05/22 07:40:18;;;;;;;9.70;4.55;;;;;;;24.30;46.10;100230.38;5113800;28;20024;-67
2023/05/22 07:42:43;;;;;;;7.65;4.43;;;;;;;24.48;45.58;100252.31;5112713;28;20118;-67
2023/05/22 07:45:09;;;;;;;11.70;5.35;;;;;;;24.48;46.30;100253.41;5114199;28;20040;-67
2023/05/22 07:47:34;;;;;;;13.00;4.95;;;;;;;24.43;46.40;100243.94;5114238;28;20032;-67
2023/05/22 07:50:03;;;;;;;7.07;4.90;;;;;;;24.55;46.10;100256.91;5113934;28;20548;-67
2023/05/22 07:52:28;;;;;;;12.05;5.30;;;;;;;24.62;45.71;100254.94;5112962;28;20040;-67
2023/05/22 07:54:54;;;;;;;13.10;5.22;;;;;;;24.59;46.12;100253.50;5114463;28;20030;-67
2023/05/22 07:57:20;;;;;;;11.43;4.90;;;;;;;24.63;45.86;100245.66;5114358;28;20470;-67
2023/05/22 07:59:46;;;;;;;9.85;4.72;;;;;;;24.59;45.87;100244.41;5114498;28;20036;-67
2023/05/22 08:02:12;;;;;;;9.77;4.93;;;;;;;24.78;45.69;100249.72;5114406;28;20030;-67
2023/05/22 08:04:38;;;;;;;10.80;4.63;;;;;;;24.81;45.95;100251.16;5114031;27;20031;-68
2023/05/22 08:07:04;;;;;;;10.68;4.95;;;;;;;24.95;45.43;100249.97;5114527;28;20035;-68
2023/05/22 08:09:30;;;;;;;7.72;4.13;;;;;;;24.93;46.06;100241.97;5111807;28;20088;-68
2023/05/22 08:11:55;;;;;;;8.35;4.13;;;;;;;24.94;45.78;100238.16;5114062;27;20469;-67
2023/05/22 08:14:21;;;;;;;7.82;4.40;;;;;;;25.05;45.45;100239.28;5114192;28;20095;-68
2023/05/22 08:16:47;;;;;;;6.72;3.90;;;;;;;25.02;45.79;100235.06;5113005;28;20024;-68
2023/05/22 08:19:13;;;;;;;6.72;4.00;;;;;;;25.17;45.54;100249.25;5114165;28;20475;-68
2023/05/22 08:21:39;;;;;;;7.72;4.30;;;;;;;25.21;45.16;100241.41;5112702;28;20028;-68
2023/05/22 08:24:05;;;;;;;8.05;4.40;;;;;;;25.34;44.61;100238.53;5114176;28;20058;-68
2023/05/22 08:26:32;;;;;;;8.32;4.43;;;;;;;25.45;44.58;100246.81;5114104;28;20036;-68
2023/05/22 08:28:58;;;;;;;11.27;4.45;;;;;;;25.49;44.58;100245.28;5111632;28;20045;-67
2023/05/22 08:31:23;;;;;;;10.73;4.50;;;;;;;25.46;44.63;100239.38;5114015;27;20027;-68
2023/05/22 08:33:49;;;;;;;9.02;4.78;;;;;;;25.51;44.56;100250.53;5113781;28;20070;-68
2023/05/22 08:36:15;;;;;;;10.27;4.82;;;;;;;25.61;43.70;100243.41;5113811;28;20043;-68
2023/05/22 08:38:40;;;;;;;7.82;4.43;;;;;;;25.60;43.94;100232.66;5113682;28;20055;-68
2023/05/22 08:41:07;;;;;;;8.93;4.60;;;;;;;25.67;44.17;100239.69;5110065;28;20031;-68
2023/05/22 08:43:33;;;;;;;9.25;5.22;;;;;;;25.72;44.29;100252.75;5112249;28;20440;-68
2023/05/22 08:46:07;;;;;;;9.10;5.35;;;;;;;25.68;43.91;100241.41;5111227;28;20110;-67
2023/05/22 08:48:33;;;;;;;8.68;4.57;;;;;;;25.84;43.90;100248.13;5109306;28;20023;-68
2023/05/22 08:51:02;;;;;;;7.80;4.88;;;;;;;25.80;44.28;100233.19;5112750;28;20046;-67
2023/05/22 08:53:33;;;;;;;12.80;4.55;;;;;;;25.97;43.80;100228.72;5112869;28;20066;-68
2023/05/22 08:55:58;;;;;;;5.00;4.32;;;;;;;26.12;43.89;100237.34;5112978;28;20039;-68
2023/05/22 08:58:26;;;;;;;8.40;4.32;;;;;;;26.08;43.61;100230.63;5113223;28;20019;-68
2023/05/22 09:00:53;;;;;;;8.48;4.63;;;;;;;25.98;44.00;100224.88;5112306;27;20036;-68
2023/05/22 09:03:20;;;;;;;8.10;4.40;;;;;;;26.09;43.93;100219.41;5111979;28;20023;-68
2023/05/22 09:05:46;;;;;;;10.18;4.28;;;;;;;26.21;44.05;100225.75;5112956;28;20016;-68
2023/05/22 09:08:11;;;;;;;5.93;3.67;;;;;;;26.34;43.80;100221.91;5113022;28;20027;-68
2023/05/22 09:10:37;;;;;;;8.55;4.35;;;;;;;26.37;43.79;100230.53;5111926;28;20032;-68
2023/05/22 09:13:08;;;;;;;8.25;4.60;;;;;;;26.49;43.10;100223.13;5112644;28;20058;-68
2023/05/22 09:15:35;;;;;;;5.03;3.90;;;;;;;26.51;43.70;100220.97;5112198;28;20484;-68
2023/05/22 09:18:02;;;;;;;6.97;4.18;;;;;;;26.54;43.21;100227.91;5112687;28;20055;-68
2023/05/22 09:20:28;;;;;;;5.45;4.25;;;;;;;26.53;42.52;100224.31;5109745;28;20535;-68
2023/05/22 09:22:53;;;;;;;6.53;3.92;;;;;;;26.57;42.62;100224.69;5109490;28;20059;-68
2023/05/22 09:25:20;;;;;;;5.57;4.22;;;;;;;26.48;43.23;100204.94;5111582;28;20020;-68
2023/05/22 09:27:49;;;;;;;8.55;4.30;;;;;;;26.62;43.14;100221.22;5109574;28;20039;-68
2023/05/22 09:30:18;;;;;;;7.90;4.13;;;;;;;26.62;43.04;100208.31;5110501;28;20390;-68
2023/05/22 09:32:45;;;;;;;8.82;4.45;;;;;;;26.68;42.84;100199.09;5111158;28;20027;-68
2023/05/22 09:35:11;;;;;;;11.65;4.70;;;;;;;26.69;42.71;100195.25;5110214;28;20372;-68
2023/05/22 09:37:37;;;;;;;12.15;4.25;;;;;;;26.81;43.36;100217.25;5109369;28;20023;-68
2023/05/22 09:40:07;;;;;;;7.65;4.75;;;;;;;26.91;42.42;100209.22;5109999;28;20476;-68
2023/05/22 09:42:33;;;;;;;7.95;4.60;;;;;;;26.92;42.66;100208.97;5109172;28;20023;-68
2023/05/22 09:45:06;;;;;;;10.95;4.20;;;;;;;26.86;42.09;100207.22;5108986;28;20074;-68
2023/05/22 09:47:35;;;;;;;7.25;3.67;;;;;;;26.91;41.99;100206.44;5109531;27;20042;-68
2023/05/22 09:50:05;;;;;;;5.78;3.92;;;;;;;26.88;42.10;100209.69;5109707;28;20842;-68
2023/05/22 09:52:34;;;;;;;6.78;4.70;;;;;;;26.85;42.41;100208.25;5111602;28;20038;-68
2023/05/22 09:55:05;;;;;;;6.03;3.92;;;;;;;26.89;42.55;100209.44;5109261;28;20433;-68
2023/05/22 09:57:35;;;;;;;8.20;4.15;;;;;;;26.88;42.78;100194.03;5109867;28;20045;-68
2023/05/22 10:00:10;;;;;;;7.40;4.50;;;;;;;26.89;42.79;100198.44;5108332;28;20055;-68
2023/05/22 10:02:37;;;;;;;7.28;4.53;;;;;;;26.91;42.70;100209.22;5108985;28;20136;-68
2023/05/22 10:05:07;;;;;;;5.57;3.50;;;;;;;26.90;43.02;100204.78;5109196;28;20060;-68
2023/05/22 10:07:42;;;;;;;5.95;3.97;;;;;;;26.86;42.61;100201.69;5108404;28;20387;-68
2023/05/22 10:10:11;;;;;;;8.15;4.18;;;;;;;27.01;41.91;100213.00;5107292;28;20024;-68
2023/05/22 10:12:49;;;;;;;7.95;4.45;;;;;;;26.96;41.56;100188.16;5110570;28;20120;-68
2023/05/22 10:15:16;;;;;;;5.00;3.50;;;;;;;27.06;41.74;100193.88;5110901;28;20028;-68
2023/05/22 10:17:43;;;;;;;7.82;4.07;;;;;;;27.25;41.18;100206.41;5111462;28;20352;-68
2023/05/22 10:20:09;;;;;;;8.43;3.65;;;;;;;27.23;41.21;100197.53;5111345;28;20029;-68
2023/05/22 10:22:38;;;;;;;6.60;3.95;;;;;;;27.27;42.07;100195.13;5110018;28;20389;-68
2023/05/22 10:25:04;;;;;;;4.60;3.35;;;;;;;27.30;42.04;100197.38;5109854;28;20150;-68
2023/05/22 10:27:30;;;;;;;6.82;4.15;;;;;;;27.35;40.87;100195.56;5111531;28;20031;-68
2023/05/22 10:30:05;;;;;;;6.60;4.35;;;;;;;27.29;41.43;100196.56;5111337;28;20027;-68
2023/05/22 10:32:43;;;;;;;6.15;4.35;;;;;;;27.27;40.63;100198.72;5109878;28;20028;-68
2023/05/22 10:35:24;;;;;;;5.70;3.92;;;;;;;27.24;40.46;100204.72;5109079;28;20055;-68
2023/05/22 10:37:58;;;;;;;6.90;3.92;;;;;;;27.33;39.35;100200.47;5106312;28;20027;-68
2023/05/22 10:40:29;;;;;;;6.07;3.17;;;;;;;27.31;39.27;100183.34;5108919;28;20019;-68
2023/05/22 10:42:58;;;;;;;8.32;3.70;;;;;;;27.39;39.71;100190.38;5109089;28;20039;-68
2023/05/22 10:45:28;;;;;;;6.93;3.65;;;;;;;27.32;39.65;100164.91;5110131;28;20042;-68
2023/05/22 10:48:11;;;;;;;5.88;3.65;;;;;;;27.46;40.16;100174.53;5109705;28;20168;-68
2023/05/22 10:50:37;;;;;;;8.27;3.73;;;;;;;27.64;40.03;100182.59;5110934;28;20054;-68
2023/05/22 10:53:27;;;;;;;7.07;4.07;;;;;;;27.59;40.36;100161.28;5110630;28;20805;-68
2023/05/22 10:55:55;;;;;;;6.70;3.85;;;;;;;27.70;40.05;100171.41;5099489;28;20039;-69
2023/05/22 10:58:33;;;;;;;6.28;4.18;;;;;;;27.77;40.23;100161.06;5111229;28;20051;-68
2023/05/22 11:01:11;;;;;;;5.65;4.10;;;;;;;27.72;41.00;100160.97;5108804;28;20032;-68
2023/05/22 11:04:01;;;;;;;8.98;4.15;;;;;;;27.71;41.71;100158.47;5109153;28;20489;-68
2023/05/22 11:06:46;;;;;;;8.27;4.18;;;;;;;27.73;41.92;100157.13;5109474;28;20019;-68
2023/05/22 11:09:19;;;;;;;10.98;3.55;;;;;;;27.71;41.17;100162.06;5108816;28;20124;-68
2023/05/22 11:11:46;;;;;;;7.68;4.00;;;;;;;27.68;41.33;100157.06;5105029;28;20039;-68
2023/05/22 11:14:15;;;;;;;5.80;3.88;;;;;;;27.70;40.85;100154.84;5108294;28;20173;-68
2023/05/22 11:16:40;;;;;;;6.75;3.30;;;;;;;27.75;40.67;100151.34;5109789;28;20484;-68
2023/05/22 11:19:07;;;;;;;6.85;3.47;;;;;;;27.69;40.68;100142.19;5110675;28;20027;-68
2023/05/22 11:21:44;;;;;;;5.68;3.70;;;;;;;27.71;41.40;100139.16;5110086;28;20036;-68
2023/05/22 11:24:11;;;;;;;9.00;3.45;;;;;;;27.68;41.42;100146.03;5110946;28;20035;-68